| time (UTC) | temp F | wind direction | speed knots | gust knots | rain 1hr in | rain 24hr in | rain mn in | humidity % | barometer mb |
| 20260510131049 | 55 | 286 | 0.0 | 0.9 | 0.00 | 0.14 | 0.00 | 96 | 1013.1 |
| 20260510130326 | 55 | 286 | 0.0 | 0.9 | 0.00 | 0.14 | 0.00 | 96 | 1013.0 |
| 20260510130047 | 54 | 0 | 0.0 | 0.9 | 0.00 | 0.14 | 0.00 | 95 | 1013.3 |
| 20260510125821 | 54 | 286 | 0.0 | 0.9 | 0.00 | 0.14 | 0.00 | 96 | 1013.0 |
| 20260510125314 | 54 | 286 | 0.0 | 1.7 | 0.00 | 0.14 | 0.00 | 96 | 1013.0 |
| 20260510124804 | 54 | 286 | 0.0 | 1.7 | 0.00 | 0.14 | 0.00 | 96 | 1013.3 |
| 20260510124558 | 53 | 0 | 0.0 | 1.7 | 0.00 | 0.14 | 0.00 | 95 | 1013.5 |
| 20260510124258 | 54 | 286 | 0.0 | 0.9 | 0.00 | 0.14 | 0.00 | 96 | 1013.4 |
| 20260510124014 | 54 | 286 | 0.0 | 0.0 | 0.00 | 0.14 | 0.00 | 96 | 1013.1 |
| 20260510123247 | 53 | 286 | 0.0 | 2.6 | 0.00 | 0.14 | 0.00 | 96 | 1013.1 |
| 20260510123040 | 53 | 0 | 0.0 | 2.6 | 0.00 | 0.14 | 0.00 | 95 | 1013.4 |
| 20260510122747 | 53 | 286 | 0.9 | 2.6 | 0.00 | 0.14 | 0.00 | 96 | 1013.1 |
| 20260510122236 | 53 | 287 | 0.9 | 1.7 | 0.00 | 0.14 | 0.00 | 96 | 1012.9 |
| 20260510121733 | 53 | 287 | 0.0 | 1.7 | 0.00 | 0.14 | 0.00 | 96 | 1012.8 |
| 20260510121538 | 53 | 0 | 0.0 | 1.7 | 0.00 | 0.14 | 0.00 | 95 | 1013.2 |
| 20260510121208 | 53 | 287 | 0.0 | 1.7 | 0.00 | 0.14 | 0.00 | 96 | 1012.7 |
| 20260510120700 | 53 | 286 | 0.0 | 0.9 | 0.00 | 0.14 | 0.00 | 96 | 1012.7 |
| 20260510120155 | 53 | 286 | 0.0 | 2.6 | 0.00 | 0.14 | 0.00 | 96 | 1012.8 |
| 20260510120038 | 52 | 0 | 0.0 | 2.6 | 0.00 | 0.14 | 0.00 | 96 | 1013.1 |
| 20260510115912 | 53 | 286 | 0.0 | 2.6 | 0.00 | 0.14 | 0.00 | 96 | 1012.8 |
| 20260510115148 | 52 | 287 | 0.9 | 1.7 | 0.00 | 0.14 | 0.00 | 96 | 1012.5 |
| 20260510114638 | 53 | 287 | 0.0 | 0.9 | 0.00 | 0.14 | 0.00 | 96 | 1012.5 |
| 20260510114546 | 52 | 0 | 0.0 | 0.9 | 0.00 | 0.14 | 0.00 | 95 | 1012.8 |
| 20260510114133 | 52 | 287 | 0.0 | 0.9 | 0.00 | 0.14 | 0.00 | 96 | 1012.5 |
| 20260510113628 | 52 | 287 | 0.0 | 0.0 | 0.00 | 0.14 | 0.00 | 96 | 1012.3 |
| 20260510113114 | 52 | 287 | 0.0 | 1.7 | 0.00 | 0.14 | 0.00 | 96 | 1012.2 |
| 20260510113043 | 51 | 0 | 0.0 | 1.7 | 0.00 | 0.14 | 0.00 | 95 | 1012.5 |
| 20260510112610 | 52 | 287 | 0.9 | 1.7 | 0.00 | 0.14 | 0.00 | 96 | 1012.1 |
| 20260510112104 | 52 | 287 | 0.0 | 0.9 | 0.00 | 0.14 | 0.00 | 96 | 1011.8 |
| 20260510111559 | 51 | 0 | 0.0 | 1.7 | 0.00 | 0.14 | 0.00 | 95 | 1012.1 |
| 20260510111040 | 52 | 287 | 0.0 | 1.7 | 0.00 | 0.14 | 0.00 | 96 | 1011.7 |
| 20260510110756 | 51 | 287 | 0.0 | 0.0 | 0.00 | 0.14 | 0.00 | 96 | 1011.8 |
| 20260510110039 | 51 | 0 | 0.0 | 0.9 | 0.00 | 0.14 | 0.00 | 95 | 1012.0 |
| 20260510110029 | 52 | 287 | 0.0 | 0.9 | 0.00 | 0.14 | 0.00 | 96 | 1011.7 |
| 20260510105735 | 52 | 287 | 0.0 | 0.9 | 0.00 | 0.14 | 0.00 | 96 | 1011.6 |
| 20260510105231 | 52 | 287 | 0.0 | 0.0 | 0.00 | 0.14 | 0.00 | 96 | 1011.8 |
| 20260510104558 | 51 | 0 | 0.0 | 0.0 | 0.00 | 0.14 | 0.00 | 95 | 1012.2 |
| 20260510104505 | 52 | 287 | 0.0 | 0.0 | 0.00 | 0.14 | 0.00 | 96 | 1011.9 |
| 20260510104000 | 51 | 287 | 0.0 | 0.0 | 0.00 | 0.14 | 0.00 | 96 | 1011.8 |
| 20260510103455 | 51 | 287 | 0.0 | 0.0 | 0.00 | 0.14 | 0.00 | 96 | 1011.8 |
| 20260510103220 | 51 | 287 | 0.0 | 0.0 | 0.00 | 0.14 | 0.00 | 96 | 1011.8 |
| 20260510103044 | 51 | 0 | 0.0 | 0.0 | 0.00 | 0.14 | 0.00 | 95 | 1012.2 |
| 20260510102442 | 51 | 287 | 0.0 | 0.0 | 0.00 | 0.14 | 0.00 | 96 | 1011.8 |
| 20260510101937 | 51 | 287 | 0.0 | 0.0 | 0.00 | 0.14 | 0.00 | 96 | 1011.8 |
| 20260510101542 | 51 | 0 | 0.0 | 0.0 | 0.00 | 0.14 | 0.00 | 95 | 1012.3 |
| 20260510101425 | 51 | 287 | 0.0 | 0.0 | 0.00 | 0.14 | 0.00 | 96 | 1011.9 |
| 20260510100919 | 51 | 287 | 0.0 | 0.0 | 0.00 | 0.14 | 0.00 | 96 | 1011.9 |
| 20260510100414 | 51 | 287 | 0.0 | 0.0 | 0.00 | 0.14 | 0.00 | 96 | 1011.8 |
| 20260510100042 | 50 | 0 | 0.0 | 0.0 | 0.00 | 0.14 | 0.00 | 95 | 1011.9 |
| 20260510095908 | 51 | 287 | 0.0 | 0.0 | 0.00 | 0.14 | 0.00 | 96 | 1011.6 |
| 20260510095611 | 51 | 287 | 0.0 | 0.0 | 0.00 | 0.14 | 0.00 | 96 | 1011.4 |
| 20260510094851 | 51 | 287 | 0.0 | 0.0 | 0.00 | 0.14 | 0.00 | 95 | 1011.5 |
| 20260510094544 | 50 | 0 | 0.0 | 0.0 | 0.00 | 0.14 | 0.00 | 95 | 1011.6 |
| 20260510094345 | 51 | 287 | 0.0 | 0.0 | 0.00 | 0.14 | 0.00 | 95 | 1011.4 |
| 20260510093838 | 51 | 287 | 0.0 | 0.0 | 0.00 | 0.14 | 0.00 | 96 | 1011.3 |
| 20260510093334 | 51 | 287 | 0.0 | 0.0 | 0.00 | 0.14 | 0.00 | 96 | 1011.4 |
| 20260510093041 | 50 | 0 | 0.0 | 0.0 | 0.00 | 0.14 | 0.00 | 95 | 1011.7 |
| 20260510092832 | 51 | 287 | 0.0 | 0.0 | 0.00 | 0.14 | 0.00 | 96 | 1011.6 |
| 20260510092322 | 51 | 287 | 0.0 | 0.0 | 0.00 | 0.14 | 0.00 | 96 | 1011.2 |
| 20260510091817 | 51 | 287 | 0.0 | 0.0 | 0.00 | 0.14 | 0.00 | 96 | 1011.1 |
| 20260510091550 | 51 | 0 | 0.0 | 0.0 | 0.00 | 0.14 | 0.00 | 95 | 1011.4 |
| 20260510091540 | 51 | 287 | 0.0 | 0.0 | 0.00 | 0.14 | 0.00 | 96 | 1011.2 |
| 20260510091039 | 51 | 287 | 0.0 | 0.9 | 0.00 | 0.14 | 0.00 | 96 | 1011.0 |
| 20260510090258 | 51 | 287 | 0.0 | 0.9 | 0.00 | 0.14 | 0.00 | 95 | 1011.0 |
| 20260510090052 | 51 | 0 | 0.0 | 1.7 | 0.00 | 0.14 | 0.00 | 95 | 1011.4 |
| 20260510085753 | 51 | 287 | 0.0 | 1.7 | 0.00 | 0.14 | 0.00 | 95 | 1010.9 |
| 20260510085249 | 51 | 287 | 0.0 | 1.7 | 0.00 | 0.14 | 0.00 | 95 | 1011.2 |
| 20260510084744 | 51 | 287 | 0.0 | 1.7 | 0.00 | 0.14 | 0.00 | 95 | 1011.1 |
| 20260510084552 | 51 | 0 | 0.0 | 1.7 | 0.00 | 0.14 | 0.00 | 95 | 1011.5 |
| 20260510084243 | 51 | 287 | 0.0 | 0.9 | 0.00 | 0.14 | 0.00 | 95 | 1011.4 |
| 20260510083221 | 51 | 287 | 0.0 | 0.0 | 0.00 | 0.14 | 0.00 | 95 | 1011.4 |
| 20260510083041 | 51 | 0 | 0.0 | 0.9 | 0.00 | 0.14 | 0.00 | 95 | 1011.7 |
| 20260510082717 | 51 | 287 | 0.0 | 0.9 | 0.00 | 0.14 | 0.00 | 95 | 1011.4 |
| 20260510082217 | 51 | 287 | 0.0 | 0.9 | 0.00 | 0.14 | 0.00 | 95 | 1011.4 |
| 20260510081919 | 51 | 287 | 0.0 | 0.9 | 0.00 | 0.14 | 0.00 | 96 | 1011.3 |
| 20260510081544 | 51 | 0 | 0.0 | 0.0 | 0.00 | 0.14 | 0.00 | 95 | 1011.6 |
| 20260510081152 | 51 | 287 | 0.0 | 0.0 | 0.00 | 0.14 | 0.00 | 96 | 1011.5 |
| 20260510080650 | 51 | 287 | 0.0 | 0.0 | 0.00 | 0.14 | 0.00 | 96 | 1011.4 |
| 20260510080348 | 51 | 287 | 0.0 | 0.9 | 0.00 | 0.14 | 0.00 | 95 | 1011.2 |
| 20260510080040 | 51 | 0 | 0.0 | 1.7 | 0.00 | 0.14 | 0.00 | 95 | 1011.5 |
| 20260510075620 | 51 | 287 | 0.9 | 3.5 | 0.00 | 0.14 | 0.00 | 96 | 1011.3 |
| 20260510075348 | 51 | 287 | 0.0 | 3.5 | 0.00 | 0.14 | 0.00 | 95 | 1011.1 |
| 20260510074611 | 51 | 288 | 0.0 | 4.3 | 0.00 | 0.14 | 0.00 | 95 | 1011.3 |
| 20260510074543 | 51 | 0 | 0.0 | 6.1 | 0.00 | 0.14 | 0.00 | 95 | 1011.4 |
| 20260510074111 | 51 | 288 | 3.5 | 5.2 | 0.00 | 0.14 | 0.00 | 96 | 1011.6 |
| 20260510073602 | 51 | 296 | 0.9 | 5.2 | 0.00 | 0.14 | 0.00 | 95 | 1011.0 |
| 20260510073056 | 51 | 281 | 0.9 | 5.2 | 0.00 | 0.14 | 0.00 | 95 | 1011.1 |
| 20260510073042 | 50 | 263 | 0.0 | 2.6 | 0.00 | 0.14 | 0.00 | 95 | 1011.3 |
| 20260510072551 | 51 | 257 | 0.0 | 0.0 | 0.00 | 0.14 | 0.00 | 95 | 1010.4 |
| 20260510072039 | 51 | 257 | 0.0 | 0.0 | 0.00 | 0.14 | 0.00 | 95 | 1010.5 |
| 20260510071541 | 50 | 0 | 0.0 | 0.0 | 0.00 | 0.14 | 0.00 | 95 | 1010.7 |
| 20260510071537 | 51 | 257 | 0.0 | 0.0 | 0.00 | 0.14 | 0.00 | 95 | 1010.4 |
| 20260510071027 | 51 | 257 | 0.0 | 0.0 | 0.00 | 0.14 | 0.00 | 95 | 1010.4 |
| 20260510070529 | 51 | 257 | 0.0 | 0.0 | 0.00 | 0.14 | 0.00 | 95 | 1010.3 |
| 20260510070047 | 50 | 0 | 0.0 | 0.0 | 0.00 | 0.14 | 0.00 | 95 | 1010.8 |
| 20260510070023 | 51 | 257 | 0.0 | 0.0 | 0.00 | 0.14 | 0.00 | 95 | 1010.5 |
| 20260510065521 | 51 | 257 | 0.0 | 0.0 | 0.00 | 0.14 | 0.00 | 95 | 1010.4 |
| 20260510065015 | 51 | 257 | 0.0 | 0.0 | 0.00 | 0.14 | 0.00 | 95 | 1010.5 |
| 20260510064556 | 50 | 0 | 0.0 | 0.0 | 0.00 | 0.14 | 0.00 | 95 | 1010.8 |
| 20260510064504 | 51 | 257 | 0.0 | 0.0 | 0.00 | 0.14 | 0.00 | 95 | 1010.6 |
| 20260510063959 | 50 | 257 | 0.0 | 0.0 | 0.00 | 0.14 | 0.00 | 95 | 1010.6 |
| 20260510063454 | 50 | 257 | 0.0 | 1.7 | 0.00 | 0.14 | 0.00 | 95 | 1010.6 |
| 20260510063044 | 50 | 0 | 0.0 | 2.6 | 0.00 | 0.14 | 0.00 | 95 | 1010.8 |
| 20260510062947 | 50 | 257 | 0.0 | 2.6 | 0.00 | 0.14 | 0.00 | 95 | 1010.6 |
| 20260510062443 | 50 | 255 | 0.9 | 2.6 | 0.00 | 0.14 | 0.00 | 95 | 1010.7 |
| 20260510061936 | 50 | 122 | 0.9 | 1.7 | 0.00 | 0.14 | 0.00 | 95 | 1010.7 |
| 20260510061658 | 50 | 121 | 0.9 | 1.7 | 0.00 | 0.14 | 0.00 | 95 | 1010.7 |
| 20260510061547 | 49 | 121 | 0.0 | 1.7 | 0.00 | 0.14 | 0.00 | 95 | 1010.9 |
| 20260510060931 | 49 | 121 | 0.9 | 1.7 | 0.00 | 0.14 | 0.00 | 95 | 1010.6 |
| 20260510060431 | 49 | 120 | 0.0 | 0.0 | 0.00 | 0.14 | 0.00 | 95 | 1010.4 |
| 20260510060140 | 49 | 120 | 0.0 | 0.0 | 0.00 | 0.14 | 0.00 | 95 | 1010.2 |
| 20260510060044 | 49 | 0 | 0.0 | 0.0 | 0.00 | 0.14 | 0.00 | 95 | 1010.6 |
| 20260510055415 | 49 | 120 | 0.0 | 0.0 | 0.00 | 0.14 | 0.00 | 95 | 1010.2 |
| 20260510054902 | 49 | 120 | 0.0 | 0.0 | 0.00 | 0.14 | 0.00 | 95 | 1010.3 |
| 20260510054541 | 49 | 0 | 0.0 | 0.0 | 0.00 | 0.14 | 0.00 | 95 | 1010.6 |
| 20260510054351 | 49 | 120 | 0.0 | 0.0 | 0.00 | 0.14 | 0.00 | 95 | 1010.3 |
| 20260510053846 | 49 | 120 | 0.0 | 0.0 | 0.00 | 0.14 | 0.00 | 95 | 1010.3 |
| 20260510053340 | 49 | 120 | 0.0 | 0.0 | 0.00 | 0.14 | 0.00 | 95 | 1010.4 |
| 20260510053041 | 48 | 0 | 0.0 | 0.0 | 0.00 | 0.14 | 0.00 | 94 | 1010.7 |
| 20260510052839 | 49 | 120 | 0.0 | 0.0 | 0.00 | 0.14 | 0.00 | 95 | 1010.4 |
| 20260510052317 | 49 | 120 | 0.0 | 0.0 | 0.00 | 0.14 | 0.00 | 95 | 1010.4 |
| 20260510051811 | 49 | 120 | 0.0 | 0.0 | 0.00 | 0.14 | 0.00 | 95 | 1010.4 |
| 20260510051540 | 48 | 0 | 0.0 | 0.0 | 0.00 | 0.14 | 0.00 | 94 | 1010.8 |
| 20260510051526 | 49 | 120 | 0.0 | 0.0 | 0.00 | 0.14 | 0.00 | 95 | 1010.4 |
| 20260510050800 | 49 | 120 | 0.0 | 0.0 | 0.00 | 0.14 | 0.00 | 95 | 1010.5 |
| 20260510050255 | 49 | 120 | 0.0 | 0.0 | 0.00 | 0.14 | 0.00 | 95 | 1010.5 |
| 20260510050039 | 48 | 0 | 0.0 | 0.0 | 0.00 | 0.14 | 0.00 | 94 | 1010.8 |
| 20260510045241 | 49 | 120 | 0.0 | 0.0 | 0.00 | 0.14 | 0.00 | 95 | 1010.5 |
| 20260510044732 | 49 | 120 | 0.0 | 0.0 | 0.00 | 0.14 | 0.00 | 95 | 1010.6 |
| 20260510044550 | 48 | 0 | 0.0 | 0.0 | 0.00 | 0.14 | 0.00 | 94 | 1010.8 |
| 20260510044219 | 49 | 120 | 0.0 | 0.0 | 0.00 | 0.14 | 0.00 | 95 | 1010.6 |
| 20260510043935 | 48 | 120 | 0.0 | 0.0 | 0.00 | 0.14 | 0.00 | 95 | 1010.7 |
| 20260510043208 | 48 | 120 | 0.0 | 0.0 | 0.00 | 0.14 | 0.00 | 95 | 1010.6 |
| 20260510043042 | 47 | 0 | 0.0 | 0.0 | 0.00 | 0.14 | 0.00 | 94 | 1011.0 |
| 20260510042706 | 48 | 120 | 0.0 | 0.0 | 0.00 | 0.14 | 0.00 | 95 | 1010.6 |
| 20260510042157 | 47 | 120 | 0.0 | 0.0 | 0.00 | 0.14 | 0.00 | 95 | 1010.7 |
| 20260510041652 | 47 | 120 | 0.0 | 0.0 | 0.00 | 0.14 | 0.00 | 94 | 1010.7 |
| 20260510041539 | 47 | 0 | 0.0 | 0.0 | 0.00 | 0.14 | 0.00 | 94 | 1011.1 |
| 20260510041139 | 48 | 120 | 0.0 | 0.0 | 0.00 | 0.14 | 0.00 | 94 | 1010.7 |
| 20260510040634 | 48 | 120 | 0.0 | 0.0 | 0.00 | 0.14 | 0.00 | 94 | 1010.7 |
| 20260510040123 | 48 | 120 | 0.0 | 0.0 | 0.00 | 0.14 | 0.00 | 94 | 1010.7 |
| 20260510040041 | 47 | 0 | 0.0 | 0.0 | 0.00 | 0.14 | 0.00 | 94 | 1011.0 |
| 20260510035622 | 48 | 120 | 0.0 | 0.0 | 0.00 | 0.14 | 0.14 | 94 | 1010.7 |
| 20260510035111 | 48 | 120 | 0.0 | 0.0 | 0.00 | 0.14 | 0.14 | 94 | 1010.7 |
| 20260510034600 | 48 | 120 | 0.0 | 0.0 | 0.00 | 0.14 | 0.14 | 94 | 1010.7 |
| 20260510034544 | 48 | 0 | 0.0 | 0.0 | 0.00 | 0.14 | 0.14 | 93 | 1011.0 |
| 20260510034054 | 49 | 120 | 0.0 | 0.0 | 0.00 | 0.14 | 0.14 | 94 | 1010.7 |
| 20260510033553 | 49 | 120 | 0.0 | 0.0 | 0.00 | 0.14 | 0.14 | 94 | 1010.7 |
| 20260510033038 | 48 | 0 | 0.0 | 0.0 | 0.00 | 0.14 | 0.14 | 94 | 1010.9 |
| 20260510033030 | 49 | 120 | 0.0 | 0.0 | 0.00 | 0.14 | 0.14 | 94 | 1010.6 |
| 20260510032525 | 49 | 120 | 0.0 | 0.0 | 0.00 | 0.14 | 0.14 | 94 | 1010.6 |
| 20260510032022 | 49 | 120 | 0.0 | 0.0 | 0.00 | 0.14 | 0.14 | 94 | 1010.6 |
| 20260510031548 | 48 | 0 | 0.0 | 0.0 | 0.00 | 0.14 | 0.14 | 94 | 1011.0 |
| 20260510031514 | 49 | 120 | 0.0 | 0.0 | 0.00 | 0.14 | 0.14 | 94 | 1010.7 |
| 20260510031009 | 49 | 120 | 0.0 | 0.0 | 0.00 | 0.14 | 0.14 | 94 | 1010.4 |
| 20260510030457 | 49 | 120 | 0.0 | 0.0 | 0.00 | 0.14 | 0.14 | 94 | 1010.5 |
| 20260510030217 | 49 | 120 | 0.0 | 0.0 | 0.00 | 0.14 | 0.14 | 94 | 1010.5 |
| 20260510030048 | 49 | 0 | 0.0 | 0.0 | 0.00 | 0.14 | 0.14 | 93 | 1010.8 |
| 20260510025659 | 49 | 120 | 0.0 | 0.0 | 0.00 | 0.14 | 0.14 | 94 | 1010.5 |
| 20260510024934 | 49 | 120 | 0.0 | 0.0 | 0.00 | 0.14 | 0.14 | 94 | 1010.5 |
| 20260510024548 | 49 | 0 | 0.0 | 0.0 | 0.00 | 0.14 | 0.14 | 93 | 1010.7 |
| 20260510024428 | 50 | 120 | 0.0 | 0.0 | 0.00 | 0.14 | 0.14 | 94 | 1010.5 |
| 20260510023924 | 50 | 120 | 0.0 | 0.0 | 0.00 | 0.14 | 0.14 | 93 | 1010.4 |
| 20260510023635 | 50 | 120 | 0.0 | 0.0 | 0.00 | 0.14 | 0.14 | 94 | 1010.5 |
| 20260510023038 | 50 | 0 | 0.0 | 0.9 | 0.00 | 0.14 | 0.14 | 93 | 1010.7 |
| 20260510022915 | 50 | 120 | 0.0 | 0.0 | 0.00 | 0.14 | 0.14 | 94 | 1010.5 |
| 20260510022406 | 50 | 120 | 0.0 | 0.0 | 0.00 | 0.14 | 0.14 | 93 | 1010.4 |
| 20260510022121 | 51 | 120 | 0.0 | 0.0 | 0.00 | 0.14 | 0.14 | 93 | 1010.3 |
| 20260510021543 | 50 | 0 | 0.0 | 0.0 | 0.00 | 0.14 | 0.14 | 93 | 1010.7 |
| 20260510021349 | 51 | 120 | 0.0 | 0.0 | 0.00 | 0.14 | 0.14 | 93 | 1010.3 |
| 20260510020330 | 51 | 120 | 0.0 | 0.0 | 0.00 | 0.14 | 0.14 | 93 | 1010.3 |
| 20260510020040 | 51 | 0 | 0.0 | 0.0 | 0.00 | 0.14 | 0.14 | 93 | 1010.6 |
| 20260510015822 | 51 | 120 | 0.0 | 0.0 | 0.00 | 0.14 | 0.14 | 93 | 1010.2 |
| 20260510015309 | 51 | 120 | 0.0 | 0.0 | 0.00 | 0.14 | 0.14 | 93 | 1010.2 |
| 20260510014809 | 51 | 120 | 0.0 | 0.0 | 0.00 | 0.14 | 0.14 | 93 | 1010.2 |
| 20260510014539 | 51 | 0 | 0.0 | 0.0 | 0.00 | 0.14 | 0.14 | 92 | 1010.5 |
| 20260510014305 | 52 | 120 | 0.0 | 0.0 | 0.00 | 0.14 | 0.14 | 93 | 1010.3 |
| 20260510013802 | 52 | 120 | 0.0 | 0.0 | 0.00 | 0.14 | 0.14 | 93 | 1010.2 |
| 20260510013507 | 52 | 120 | 0.0 | 0.0 | 0.00 | 0.14 | 0.14 | 92 | 1010.2 |
| 20260510013042 | 52 | 0 | 0.0 | 0.0 | 0.00 | 0.14 | 0.14 | 92 | 1010.5 |
| 20260510012742 | 52 | 120 | 0.0 | 0.0 | 0.00 | 0.14 | 0.14 | 92 | 1010.1 |
| 20260510012236 | 53 | 120 | 0.0 | 0.0 | 0.00 | 0.14 | 0.14 | 92 | 1010.1 |
| 20260510011726 | 53 | 120 | 0.0 | 0.0 | 0.00 | 0.14 | 0.14 | 92 | 1010.1 |
| 20260510011538 | 53 | 0 | 0.0 | 0.0 | 0.00 | 0.14 | 0.14 | 92 | 1010.4 |
| 20260510011218 | 53 | 120 | 0.0 | 0.0 | 0.00 | 0.14 | 0.14 | 92 | 1010.0 |
| 20260510010715 | 53 | 120 | 0.0 | 0.0 | 0.00 | 0.14 | 0.14 | 91 | 1009.9 |
| 20260510010215 | 54 | 120 | 0.0 | 0.0 | 0.00 | 0.14 | 0.14 | 91 | 1009.9 |
| 20260510010044 | 54 | 0 | 0.0 | 0.0 | 0.00 | 0.14 | 0.14 | 91 | 1010.1 |
| 20260510005712 | 55 | 120 | 0.0 | 0.0 | 0.00 | 0.14 | 0.14 | 91 | 1009.9 |
| 20260510005156 | 55 | 120 | 0.0 | 0.0 | 0.00 | 0.14 | 0.14 | 91 | 1009.9 |
| 20260510004657 | 55 | 120 | 0.0 | 0.0 | 0.00 | 0.14 | 0.14 | 91 | 1009.9 |
| 20260510004545 | 55 | 0 | 0.0 | 0.0 | 0.00 | 0.14 | 0.14 | 90 | 1010.1 |
| 20260510004156 | 55 | 120 | 0.0 | 0.0 | 0.00 | 0.14 | 0.14 | 91 | 1009.8 |
| 20260510003908 | 55 | 120 | 0.0 | 0.0 | 0.00 | 0.14 | 0.14 | 91 | 1009.7 |
| 20260510003142 | 55 | 120 | 0.0 | 0.0 | 0.00 | 0.14 | 0.14 | 91 | 1009.7 |
| 20260510003051 | 55 | 0 | 0.0 | 0.9 | 0.00 | 0.14 | 0.14 | 90 | 1010.0 |
| 20260510002636 | 55 | 120 | 0.0 | 0.9 | 0.00 | 0.14 | 0.14 | 91 | 1009.7 |
| 20260510002137 | 55 | 120 | 0.0 | 0.9 | 0.00 | 0.14 | 0.14 | 90 | 1009.7 |
| 20260510001635 | 55 | 120 | 0.0 | 1.7 | 0.00 | 0.14 | 0.14 | 90 | 1009.6 |
| 20260510001540 | 55 | 0 | 0.0 | 1.7 | 0.00 | 0.14 | 0.14 | 89 | 1010.0 |
| 20260510001124 | 55 | 120 | 0.0 | 1.7 | 0.00 | 0.14 | 0.14 | 89 | 1009.7 |
| 20260510000619 | 56 | 120 | 0.0 | 0.0 | 0.00 | 0.14 | 0.14 | 88 | 1009.5 |
| 20260510000113 | 56 | 120 | 0.0 | 1.7 | 0.00 | 0.14 | 0.14 | 88 | 1009.4 |
| 20260510000041 | 56 | 0 | 0.0 | 1.7 | 0.00 | 0.14 | 0.14 | 88 | 1009.7 |
| 20260509235606 | 57 | 120 | 0.0 | 1.7 | 0.00 | 0.14 | 0.14 | 88 | 1009.4 |
| 20260509235100 | 57 | 120 | 0.0 | 0.9 | 0.00 | 0.14 | 0.14 | 88 | 1009.4 |
| 20260509234559 | 57 | 0 | 0.0 | 1.7 | 0.00 | 0.14 | 0.14 | 86 | 1009.6 |
| 20260509234555 | 57 | 120 | 0.0 | 0.9 | 0.00 | 0.14 | 0.14 | 87 | 1009.4 |
| 20260509234049 | 58 | 120 | 0.0 | 1.7 | 0.00 | 0.14 | 0.14 | 87 | 1009.5 |
| 20260509233553 | 58 | 120 | 0.9 | 2.6 | 0.00 | 0.14 | 0.14 | 86 | 1009.6 |
| 20260509233053 | 58 | 120 | 0.9 | 3.5 | 0.00 | 0.14 | 0.14 | 86 | 1009.8 |
| 20260509233043 | 58 | 120 | 1.7 | 3.5 | 0.00 | 0.14 | 0.14 | 86 | 1009.5 |
| 20260509232538 | 58 | 121 | 1.7 | 3.5 | 0.00 | 0.14 | 0.14 | 86 | 1009.5 |
| 20260509232032 | 58 | 171 | 0.9 | 3.5 | 0.00 | 0.14 | 0.14 | 87 | 1009.6 |
| 20260509231600 | 58 | 175 | 0.0 | 1.7 | 0.00 | 0.14 | 0.14 | 86 | 1009.9 |
| 20260509231534 | 58 | 175 | 0.0 | 1.7 | 0.00 | 0.14 | 0.14 | 86 | 1009.5 |
| 20260509231248 | 58 | 176 | 0.0 | 0.0 | 0.00 | 0.14 | 0.14 | 86 | 1009.6 |
| 20260509230526 | 58 | 176 | 0.0 | 0.0 | 0.00 | 0.14 | 0.14 | 86 | 1009.6 |
| 20260509230039 | 58 | 0 | 0.0 | 0.0 | 0.00 | 0.14 | 0.14 | 85 | 1009.7 |
| 20260509230015 | 58 | 176 | 0.0 | 0.0 | 0.00 | 0.14 | 0.14 | 85 | 1009.4 |
| 20260509225505 | 59 | 176 | 0.0 | 2.6 | 0.00 | 0.14 | 0.14 | 84 | 1009.5 |
| 20260509224959 | 59 | 176 | 0.9 | 2.6 | 0.00 | 0.14 | 0.14 | 84 | 1009.4 |
| 20260509224537 | 59 | 0 | 0.9 | 2.6 | 0.00 | 0.14 | 0.14 | 84 | 1009.6 |
| 20260509224453 | 59 | 192 | 0.9 | 2.6 | 0.00 | 0.14 | 0.14 | 84 | 1009.4 |
| 20260509223948 | 60 | 261 | 1.7 | 2.6 | 0.00 | 0.14 | 0.14 | 84 | 1009.4 |
| 20260509223439 | 60 | 261 | 0.0 | 2.6 | 0.00 | 0.14 | 0.14 | 84 | 1009.4 |
| 20260509223038 | 59 | 0 | 0.0 | 1.7 | 0.00 | 0.14 | 0.14 | 83 | 1009.5 |
| 20260509222935 | 60 | 260 | 0.0 | 1.7 | 0.00 | 0.14 | 0.14 | 83 | 1009.4 |
| 20260509222426 | 60 | 261 | 0.0 | 0.9 | 0.00 | 0.14 | 0.14 | 83 | 1009.4 |
| 20260509221921 | 60 | 260 | 0.0 | 0.9 | 0.00 | 0.14 | 0.14 | 83 | 1009.4 |
| 20260509221542 | 59 | 0 | 0.0 | 0.0 | 0.00 | 0.14 | 0.14 | 84 | 1009.8 |
| 20260509221419 | 59 | 260 | 0.0 | 0.0 | 0.00 | 0.14 | 0.14 | 85 | 1009.4 |
| 20260509220903 | 59 | 260 | 0.0 | 0.0 | 0.00 | 0.14 | 0.14 | 85 | 1009.5 |
| 20260509220357 | 59 | 260 | 0.0 | 1.7 | 0.00 | 0.14 | 0.14 | 84 | 1009.4 |
| 20260509220040 | 59 | 0 | 0.0 | 1.7 | 0.00 | 0.14 | 0.14 | 84 | 1009.8 |
| 20260509215852 | 60 | 260 | 0.0 | 1.7 | 0.00 | 0.14 | 0.14 | 85 | 1009.4 |
| 20260509215346 | 59 | 260 | 0.0 | 1.7 | 0.00 | 0.14 | 0.14 | 87 | 1009.5 |
| 20260509214840 | 59 | 260 | 0.0 | 1.7 | 0.00 | 0.14 | 0.14 | 87 | 1009.3 |
| 20260509214539 | 58 | 0 | 0.0 | 0.9 | 0.00 | 0.14 | 0.14 | 87 | 1009.5 |
| 20260509214339 | 59 | 261 | 0.0 | 0.9 | 0.00 | 0.14 | 0.14 | 87 | 1009.2 |
| 20260509213830 | 58 | 261 | 0.0 | 0.9 | 0.00 | 0.14 | 0.14 | 87 | 1009.2 |
| 20260509213325 | 58 | 261 | 0.0 | 0.9 | 0.00 | 0.14 | 0.14 | 87 | 1009.3 |
| 20260509213039 | 58 | 0 | 0.0 | 0.9 | 0.00 | 0.14 | 0.14 | 86 | 1009.6 |
| 20260509212820 | 58 | 261 | 0.0 | 0.9 | 0.00 | 0.14 | 0.14 | 87 | 1009.4 |
| 20260509212315 | 58 | 261 | 0.0 | 0.0 | 0.00 | 0.14 | 0.14 | 87 | 1009.3 |
| 20260509211810 | 58 | 261 | 0.0 | 0.0 | 0.00 | 0.14 | 0.14 | 86 | 1009.4 |
| 20260509211544 | 57 | 0 | 0.0 | 0.0 | 0.00 | 0.14 | 0.14 | 87 | 1009.6 |
| 20260509211534 | 58 | 261 | 0.0 | 0.0 | 0.00 | 0.14 | 0.14 | 87 | 1009.3 |
| 20260509210804 | 58 | 261 | 0.0 | 0.0 | 0.00 | 0.14 | 0.14 | 86 | 1009.4 |
| 20260509210259 | 58 | 261 | 0.0 | 0.9 | 0.00 | 0.14 | 0.14 | 85 | 1009.6 |
| 20260509210048 | 58 | 0 | 0.0 | 0.9 | 0.00 | 0.14 | 0.14 | 84 | 1009.8 |
| 20260509210014 | 58 | 261 | 0.0 | 0.9 | 0.01 | 0.14 | 0.14 | 85 | 1009.6 |
| 20260509205246 | 59 | 261 | 0.0 | 1.7 | 0.01 | 0.14 | 0.14 | 86 | 1009.6 |
| 20260509204742 | 59 | 261 | 0.0 | 2.6 | 0.01 | 0.14 | 0.14 | 87 | 1009.6 |
| 20260509204540 | 58 | 0 | 0.0 | 2.6 | 0.01 | 0.14 | 0.14 | 85 | 1009.8 |
| 20260509204242 | 58 | 261 | 1.7 | 2.6 | 0.01 | 0.14 | 0.14 | 84 | 1009.6 |
| 20260509203737 | 58 | 261 | 0.0 | 3.5 | 0.02 | 0.14 | 0.14 | 85 | 1009.5 |
| 20260509203231 | 58 | 261 | 1.7 | 3.5 | 0.02 | 0.14 | 0.14 | 86 | 1009.6 |
| 20260509203044 | 58 | 261 | 0.0 | 3.5 | 0.02 | 0.14 | 0.14 | 86 | 1009.9 |
| 20260509202730 | 58 | 259 | 0.0 | 0.0 | 0.02 | 0.14 | 0.14 | 87 | 1009.7 |
| 20260509202224 | 58 | 259 | 0.0 | 0.0 | 0.02 | 0.14 | 0.14 | 89 | 1009.8 |
| 20260509201711 | 58 | 259 | 0.0 | 0.0 | 0.02 | 0.14 | 0.14 | 90 | 1009.7 |
| 20260509201550 | 57 | 0 | 0.0 | 0.0 | 0.02 | 0.14 | 0.14 | 90 | 1010.0 |
| 20260509201441 | 57 | 259 | 0.0 | 0.0 | 0.02 | 0.14 | 0.14 | 91 | 1009.6 |
| 20260509200706 | 56 | 259 | 0.0 | 0.9 | 0.02 | 0.14 | 0.14 | 91 | 1009.6 |
| 20260509200200 | 56 | 259 | 0.0 | 0.9 | 0.02 | 0.14 | 0.14 | 91 | 1009.7 |
| 20260509200054 | 55 | 0 | 0.0 | 0.9 | 0.01 | 0.13 | 0.13 | 91 | 1009.9 |
| 20260509195654 | 56 | 259 | 0.0 | 0.0 | 0.01 | 0.13 | 0.13 | 91 | 1009.8 |
| 20260509194644 | 56 | 259 | 0.0 | 0.0 | 0.01 | 0.13 | 0.13 | 91 | 1010.0 |
| 20260509194537 | 55 | 0 | 0.0 | 0.9 | 0.01 | 0.13 | 0.13 | 90 | 1010.3 |
| 20260509194135 | 56 | 259 | 0.0 | 0.9 | 0.03 | 0.13 | 0.13 | 91 | 1010.1 |
| 20260509193627 | 56 | 259 | 0.0 | 0.9 | 0.03 | 0.12 | 0.12 | 91 | 1010.1 |
| 20260509193346 | 56 | 260 | 0.0 | 0.9 | 0.05 | 0.12 | 0.12 | 90 | 1010.3 |
| 20260509193047 | 55 | 0 | 0.0 | 0.9 | 0.04 | 0.12 | 0.12 | 89 | 1010.5 |
| 20260509192618 | 56 | 260 | 0.0 | 0.0 | 0.05 | 0.12 | 0.12 | 90 | 1010.4 |
| 20260509192112 | 56 | 260 | 0.0 | 0.0 | 0.06 | 0.12 | 0.12 | 90 | 1010.5 |
| 20260509191608 | 56 | 260 | 0.0 | 0.0 | 0.06 | 0.12 | 0.12 | 90 | 1010.5 |
| 20260509191544 | 55 | 0 | 0.0 | 0.0 | 0.06 | 0.12 | 0.12 | 90 | 1010.8 |
| 20260509191103 | 55 | 260 | 0.0 | 0.0 | 0.06 | 0.12 | 0.12 | 90 | 1010.6 |
| 20260509190559 | 55 | 260 | 0.0 | 0.0 | 0.06 | 0.12 | 0.12 | 90 | 1010.8 |
| 20260509190059 | 55 | 260 | 0.0 | 0.0 | 0.06 | 0.12 | 0.12 | 90 | 1010.8 |
| 20260509190039 | 55 | 0 | 0.0 | 0.0 | 0.06 | 0.12 | 0.12 | 89 | 1011.1 |
| 20260509185555 | 55 | 260 | 0.0 | 0.0 | 0.07 | 0.12 | 0.12 | 90 | 1010.8 |
| 20260509185048 | 55 | 260 | 0.0 | 0.0 | 0.07 | 0.12 | 0.12 | 89 | 1011.1 |
| 20260509184543 | 55 | 0 | 0.0 | 0.0 | 0.06 | 0.11 | 0.11 | 89 | 1011.6 |
| 20260509184541 | 55 | 260 | 0.0 | 0.0 | 0.07 | 0.11 | 0.11 | 90 | 1011.3 |
| 20260509184042 | 55 | 260 | 0.0 | 1.7 | 0.06 | 0.10 | 0.10 | 89 | 1011.2 |
| 20260509183537 | 55 | 260 | 0.0 | 3.5 | 0.06 | 0.09 | 0.09 | 89 | 1011.4 |
| 20260509183048 | 55 | 260 | 0.9 | 3.5 | 0.04 | 0.07 | 0.07 | 87 | 1011.7 |
| 20260509183034 | 55 | 260 | 1.7 | 3.5 | 0.04 | 0.07 | 0.07 | 88 | 1011.4 |
| 20260509182529 | 56 | 245 | 1.7 | 3.5 | 0.04 | 0.07 | 0.07 | 88 | 1011.3 |
| 20260509182022 | 56 | 240 | 0.0 | 2.6 | 0.03 | 0.06 | 0.06 | 87 | 1011.3 |
| 20260509181539 | 56 | 240 | 0.0 | 2.6 | 0.03 | 0.06 | 0.06 | 86 | 1011.6 |
| 20260509181514 | 56 | 240 | 0.0 | 2.6 | 0.03 | 0.06 | 0.06 | 87 | 1011.4 |
| 20260509181011 | 56 | 240 | 1.7 | 2.6 | 0.03 | 0.06 | 0.06 | 86 | 1011.3 |
| 20260509180729 | 56 | 240 | 1.7 | 2.6 | 0.03 | 0.06 | 0.06 | 86 | 1011.3 |
| 20260509180054 | 56 | 0 | 0.0 | 3.5 | 0.03 | 0.06 | 0.06 | 85 | 1011.7 |
| 20260509180004 | 56 | 240 | 0.9 | 3.5 | 0.03 | 0.06 | 0.06 | 86 | 1011.4 |
| 20260509175504 | 56 | 229 | 1.7 | 3.5 | 0.02 | 0.05 | 0.05 | 86 | 1011.4 |
| 20260509174958 | 56 | 225 | 0.9 | 5.2 | 0.02 | 0.05 | 0.05 | 85 | 1011.5 |
| 20260509174540 | 56 | 225 | 0.9 | 5.2 | 0.02 | 0.04 | 0.04 | 84 | 1011.6 |
| 20260509174446 | 56 | 225 | 1.7 | 5.2 | 0.02 | 0.04 | 0.04 | 84 | 1011.4 |
| 20260509173941 | 57 | 207 | 2.6 | 4.3 | 0.02 | 0.04 | 0.04 | 83 | 1011.6 |
| 20260509173440 | 57 | 209 | 2.6 | 4.3 | 0.01 | 0.03 | 0.03 | 83 | 1011.5 |
| 20260509173040 | 57 | 232 | 0.9 | 5.2 | 0.01 | 0.03 | 0.03 | 82 | 1011.6 |
| 20260509172938 | 57 | 265 | 1.7 | 5.2 | 0.01 | 0.03 | 0.03 | 83 | 1011.3 |
| 20260509172430 | 58 | 283 | 1.7 | 5.2 | 0.01 | 0.03 | 0.03 | 82 | 1011.3 |
| 20260509171925 | 58 | 205 | 2.6 | 5.2 | 0.01 | 0.03 | 0.03 | 82 | 1011.3 |
| 20260509171546 | 58 | 242 | 0.9 | 3.5 | 0.01 | 0.03 | 0.03 | 83 | 1011.6 |
| 20260509171426 | 58 | 238 | 0.9 | 3.5 | 0.02 | 0.03 | 0.03 | 83 | 1011.4 |
| 20260509170920 | 58 | 238 | 0.0 | 2.6 | 0.02 | 0.03 | 0.03 | 83 | 1011.3 |
| 20260509170415 | 58 | 238 | 1.7 | 2.6 | 0.03 | 0.03 | 0.03 | 82 | 1011.2 |
| 20260509170059 | 57 | 238 | 0.9 | 3.5 | 0.03 | 0.03 | 0.03 | 82 | 1011.4 |
| 20260509165913 | 58 | 238 | 0.9 | 2.6 | 0.03 | 0.03 | 0.03 | 82 | 1011.0 |
| 20260509165402 | 58 | 238 | 0.0 | 0.0 | 0.03 | 0.03 | 0.03 | 84 | 1010.9 |
| 20260509164857 | 57 | 238 | 0.0 | 1.7 | 0.02 | 0.02 | 0.03 | 82 | 1010.9 |
| 20260509164551 | 57 | 0 | 0.0 | 3.5 | 0.02 | 0.02 | 0.02 | 81 | 1011.3 |
| 20260509164352 | 57 | 238 | 0.0 | 3.5 | 0.02 | 0.02 | 0.02 | 81 | 1010.9 |
| 20260509163846 | 58 | 238 | 0.9 | 3.5 | 0.02 | 0.02 | 0.02 | 81 | 1011.1 |
| 20260509163347 | 58 | 248 | 0.9 | 5.2 | 0.02 | 0.02 | 0.02 | 82 | 1011.3 |
| 20260509163055 | 57 | 249 | 1.7 | 5.2 | 0.02 | 0.02 | 0.02 | 81 | 1011.5 |
| 20260509162841 | 58 | 265 | 1.7 | 5.2 | 0.02 | 0.02 | 0.02 | 82 | 1011.2 |
| 20260509162336 | 58 | 240 | 1.7 | 3.5 | 0.02 | 0.02 | 0.02 | 83 | 1011.1 |
| 20260509161834 | 58 | 239 | 1.7 | 3.5 | 0.02 | 0.02 | 0.02 | 83 | 1011.1 |
| 20260509161550 | 57 | 238 | 0.9 | 7.0 | 0.02 | 0.02 | 0.02 | 81 | 1011.5 |
| 20260509161325 | 58 | 239 | 0.9 | 7.0 | 0.01 | 0.01 | 0.01 | 81 | 1011.2 |
| 20260509160820 | 58 | 215 | 3.5 | 8.7 | 0.01 | 0.01 | 0.01 | 80 | 1011.4 |
| 20260509160314 | 59 | 202 | 4.3 | 8.7 | 0.00 | 0.00 | 0.00 | 79 | 1011.5 |
| 20260509160047 | 59 | 220 | 1.7 | 8.7 | 0.00 | 0.00 | 0.00 | 79 | 1011.9 |
| 20260509160032 | 59 | 225 | 2.6 | 8.7 | 0.00 | 0.00 | 0.00 | 78 | 1011.7 |
| 20260509155306 | 59 | 200 | 1.7 | 5.2 | 0.00 | 0.00 | 0.00 | 79 | 1011.7 |
| 20260509154757 | 60 | 313 | 0.0 | 5.2 | 0.00 | 0.00 | 0.00 | 81 | 1011.6 |
| 20260509154540 | 59 | 0 | 0.9 | 6.1 | 0.00 | 0.00 | 0.00 | 79 | 1011.9 |
| 20260509154255 | 60 | 257 | 0.9 | 6.1 | 0.00 | 0.00 | 0.00 | 80 | 1011.9 |
| 20260509153747 | 59 | 231 | 1.7 | 6.1 | 0.00 | 0.00 | 0.00 | 80 | 1011.9 |
| 20260509153243 | 59 | 217 | 3.5 | 7.8 | 0.00 | 0.00 | 0.00 | 79 | 1011.8 |
| 20260509153046 | 59 | 238 | 1.7 | 7.8 | 0.00 | 0.00 | 0.00 | 79 | 1012.1 |
| 20260509152737 | 59 | 209 | 0.9 | 7.8 | 0.00 | 0.00 | 0.00 | 79 | 1011.8 |
| 20260509152453 | 59 | 234 | 3.5 | 7.8 | 0.00 | 0.00 | 0.00 | 78 | 1011.9 |
| 20260509151726 | 60 | 232 | 2.6 | 6.1 | 0.00 | 0.00 | 0.00 | 78 | 1012.0 |
| 20260509151548 | 59 | 211 | 0.9 | 7.0 | 0.00 | 0.00 | 0.00 | 78 | 1012.2 |
| 20260509151226 | 60 | 211 | 2.6 | 5.2 | 0.00 | 0.00 | 0.00 | 78 | 1012.0 |
| 20260509150713 | 59 | 207 | 1.7 | 4.3 | 0.00 | 0.00 | 0.00 | 79 | 1011.7 |
| 20260509150208 | 59 | 207 | 0.9 | 4.3 | 0.00 | 0.00 | 0.00 | 79 | 1011.6 |
| 20260509150050 | 59 | 0 | 0.9 | 4.3 | 0.00 | 0.00 | 0.00 | 78 | 1012.0 |
| 20260509145655 | 59 | 208 | 0.0 | 4.3 | 0.00 | 0.00 | 0.00 | 79 | 1011.6 |
| 20260509145150 | 59 | 208 | 1.7 | 3.5 | 0.00 | 0.00 | 0.00 | 79 | 1011.7 |
| 20260509144645 | 59 | 209 | 1.7 | 3.5 | 0.00 | 0.00 | 0.00 | 79 | 1011.6 |
| 20260509144547 | 58 | 209 | 0.9 | 2.6 | 0.00 | 0.00 | 0.00 | 79 | 1012.0 |
| 20260509144142 | 59 | 209 | 0.9 | 3.5 | 0.00 | 0.00 | 0.00 | 79 | 1011.6 |
| 20260509143635 | 59 | 209 | 0.9 | 5.2 | 0.00 | 0.00 | 0.00 | 78 | 1011.5 |
| 20260509143129 | 59 | 208 | 1.7 | 5.2 | 0.00 | 0.00 | 0.00 | 78 | 1011.5 |
| 20260509143047 | 58 | 208 | 1.7 | 5.2 | 0.00 | 0.00 | 0.00 | 77 | 1011.9 |
| 20260509142623 | 59 | 207 | 0.0 | 3.5 | 0.00 | 0.00 | 0.00 | 77 | 1011.6 |
| 20260509142117 | 59 | 207 | 0.0 | 3.5 | 0.00 | 0.00 | 0.00 | 77 | 1011.4 |
| 20260509141612 | 59 | 207 | 1.7 | 3.5 | 0.00 | 0.00 | 0.00 | 77 | 1011.6 |
| 20260509141540 | 58 | 207 | 0.9 | 3.5 | 0.00 | 0.00 | 0.00 | 76 | 1011.7 |
| 20260509141107 | 58 | 207 | 1.7 | 3.5 | 0.00 | 0.00 | 0.00 | 76 | 1011.5 |
| 20260509140608 | 59 | 205 | 2.6 | 5.2 | 0.00 | 0.00 | 0.00 | 77 | 1011.4 |
| 20260509140103 | 59 | 206 | 1.7 | 5.2 | 0.00 | 0.00 | 0.00 | 77 | 1011.4 |
| 20260509140041 | 58 | 206 | 1.7 | 5.2 | 0.00 | 0.00 | 0.00 | 76 | 1011.6 |
| 20260509135557 | 59 | 190 | 0.0 | 3.5 | 0.00 | 0.00 | 0.00 | 76 | 1011.4 |
| 20260509135051 | 59 | 190 | 0.9 | 3.5 | 0.00 | 0.00 | 0.00 | 77 | 1011.2 |
| 20260509134545 | 58 | 189 | 0.9 | 4.3 | 0.00 | 0.00 | 0.00 | 76 | 1011.3 |
| 20260509134542 | 58 | 189 | 0.9 | 4.3 | 0.00 | 0.00 | 0.00 | 75 | 1011.5 |
| 20260509134040 | 58 | 182 | 0.9 | 4.3 | 0.00 | 0.00 | 0.00 | 76 | 1011.3 |
| 20260509133536 | 58 | 180 | 0.9 | 1.7 | 0.00 | 0.00 | 0.00 | 77 | 1011.3 |
| 20260509133045 | 57 | 0 | 0.0 | 2.6 | 0.00 | 0.00 | 0.00 | 76 | 1011.7 |
| 20260509133030 | 58 | 180 | 0.0 | 2.6 | 0.00 | 0.00 | 0.00 | 77 | 1011.4 |
| 20260509132529 | 58 | 180 | 0.0 | 3.5 | 0.00 | 0.00 | 0.00 | 77 | 1011.4 |
| 20260509132026 | 58 | 180 | 0.9 | 3.5 | 0.00 | 0.00 | 0.00 | 76 | 1011.5 |
| 20260509131539 | 57 | 132 | 0.0 | 5.2 | 0.00 | 0.00 | 0.00 | 77 | 1011.6 |
| 20260509131521 | 58 | 132 | 0.9 | 3.5 | 0.00 | 0.00 | 0.00 | 77 | 1011.3 |